OSDI/DAM METAR and TAF weather

Enter ICAO airport designator
Station Type Date Time Source
OSDI METAR 2019/10/21 06:00 UTC NOAA

OSDI 210600Z 00000KT CAVOK 17/13 Q1018


Station Type Date Time Source
OSDI Decoded METAR 2019/10/21 06:00 UTC NOAA

Damascus Int. Airport, Syria (OSDI) 33-25N 036-31E 609M
Oct 21, 2019 - 02:00 AM EDT / 2019.10.21 0600 UTC
Wind: Calm:0
Visibility: greater than 7 mile(s):0
Temperature: 62 F (17 C)
Dew Point: 55 F (13 C)
Relative Humidity: 77%
Pressure (altimeter): 30.06 in. Hg (1018 hPa)
ob: OSDI 210600Z 00000KT CAVOK 17/13 Q1018
cycle: 6

Station Type Date Time Source
OSDI TAF 2019/10/21 06:57 UTC NOAA

TAF TAF OSDI 2106/2212 22008KT CAVOK
BECMG 2110/2112 25010G20KT 9999 FEW030 SCT100 PROB30
TEMPO 2206/2212 26015G25KT 5000SHRA FEW026CB SCT030 BKN090

Example: see airport list